createdAt,value
2022-10-22T00:01:45.548Z,7.35
2022-10-22T00:04:11.846Z,5.55
2022-10-22T00:06:38.210Z,6.38
2022-10-22T00:09:04.633Z,7.05
2022-10-22T00:11:31.113Z,3.83
2022-10-22T00:13:58.004Z,6.95
2022-10-22T00:16:26.965Z,4.38
2022-10-22T00:18:53.320Z,6.85
2022-10-22T00:21:19.681Z,6.35
2022-10-22T00:23:47.165Z,4.03
2022-10-22T00:26:13.532Z,6.45
2022-10-22T00:28:39.939Z,7.63
2022-10-22T00:31:07.111Z,8.52
2022-10-22T00:33:34.072Z,5.15
2022-10-22T00:36:00.461Z,6.22
2022-10-22T00:38:26.849Z,5.68
2022-10-22T00:40:53.282Z,7.47
2022-10-22T00:43:20.101Z,4.97
2022-10-22T00:45:47.275Z,6.20
2022-10-22T00:48:18.673Z,8.80
2022-10-22T00:50:56.397Z,7.93
2022-10-22T00:53:29.037Z,6.45
2022-10-22T00:55:55.690Z,10.57
2022-10-22T00:58:27.772Z,5.68
2022-10-22T01:00:55.469Z,4.95
2022-10-22T01:03:22.441Z,4.82
2022-10-22T01:06:04.900Z,5.38
2022-10-22T01:08:46.406Z,8.00
2022-10-22T01:11:26.944Z,6.80
2022-10-22T01:13:56.306Z,6.00
2022-10-22T01:16:59.286Z,6.20
2022-10-22T01:19:56.635Z,5.78
2022-10-22T01:23:00.102Z,6.75
2022-10-22T01:25:36.969Z,10.00
2022-10-22T01:28:31.253Z,7.82
2022-10-22T01:31:00.676Z,8.98
2022-10-22T01:33:29.266Z,8.13
2022-10-22T01:35:57.384Z,5.10
2022-10-22T01:38:25.017Z,5.80
2022-10-22T01:40:51.781Z,10.15
2022-10-22T01:43:18.502Z,8.13
2022-10-22T01:45:50.204Z,6.65
2022-10-22T01:48:45.453Z,7.97
2022-10-22T01:51:35.104Z,7.50
2022-10-22T01:54:21.223Z,7.18
2022-10-22T01:57:16.761Z,5.57
2022-10-22T02:00:01.210Z,6.90
2022-10-22T02:02:40.484Z,6.00
2022-10-22T02:05:06.891Z,7.40
2022-10-22T02:07:41.690Z,9.98
2022-10-22T02:10:10.548Z,9.90
2022-10-22T02:12:39.118Z,7.35
2022-10-22T02:15:07.899Z,9.68
2022-10-22T02:17:36.857Z,6.20
2022-10-22T02:20:10.078Z,9.40
2022-10-22T02:22:37.121Z,5.15
2022-10-22T02:25:07.539Z,5.88
2022-10-22T02:28:04.774Z,11.80
2022-10-22T02:30:33.547Z,5.70
2022-10-22T02:33:06.697Z,6.22
2022-10-22T02:35:34.060Z,5.50
2022-10-22T02:38:01.098Z,5.68
2022-10-22T02:40:30.454Z,8.07
2022-10-22T02:42:56.832Z,9.48
2022-10-22T02:45:23.530Z,7.97
2022-10-22T02:47:50.010Z,5.72
2022-10-22T02:50:16.658Z,5.63
2022-10-22T02:52:43.411Z,7.72
2022-10-22T02:55:10.100Z,6.75
2022-10-22T02:57:36.428Z,8.13
2022-10-22T03:00:05.193Z,5.82
2022-10-22T03:02:31.588Z,6.22
2022-10-22T03:04:57.957Z,6.70
2022-10-22T03:07:24.370Z,6.22
2022-10-22T03:09:51.109Z,7.53
2022-10-22T03:12:17.498Z,16.40
2022-10-22T03:14:43.849Z,7.32
2022-10-22T03:17:13.081Z,7.75
2022-10-22T03:19:39.405Z,12.27
2022-10-22T03:22:10.004Z,12.57
2022-10-22T03:24:39.713Z,6.72
2022-10-22T03:27:06.158Z,6.20
2022-10-22T03:29:36.092Z,8.82
2022-10-22T03:32:02.400Z,6.68
2022-10-22T03:34:28.732Z,7.65
2022-10-22T03:36:57.530Z,11.50
2022-10-22T03:39:24.114Z,8.43
2022-10-22T03:41:51.458Z,7.28
2022-10-22T03:44:18.115Z,9.32
2022-10-22T03:46:44.907Z,5.45
2022-10-22T03:49:11.282Z,9.70
2022-10-22T03:51:37.644Z,7.32
2022-10-22T03:54:04.241Z,10.60
2022-10-22T03:56:30.731Z,5.63
2022-10-22T03:58:58.439Z,9.48
2022-10-22T04:01:25.375Z,7.22
2022-10-22T04:03:52.045Z,4.65
2022-10-22T04:06:18.426Z,7.57
2022-10-22T04:08:45.993Z,7.30
2022-10-22T04:11:14.133Z,8.95
2022-10-22T04:13:40.776Z,11.23
2022-10-22T04:16:12.797Z,6.25
2022-10-22T04:18:39.925Z,9.43
2022-10-22T04:21:08.242Z,9.27
2022-10-22T04:23:34.675Z,10.60
2022-10-22T04:26:03.182Z,10.15
2022-10-22T04:28:29.573Z,8.50
2022-10-22T04:30:55.910Z,6.97
2022-10-22T04:33:22.654Z,7.25
2022-10-22T04:35:49.012Z,7.30
2022-10-22T04:38:15.723Z,6.68
2022-10-22T04:40:42.405Z,7.63
2022-10-22T04:43:11.343Z,8.85
2022-10-22T04:45:37.672Z,7.10
2022-10-22T04:48:04.178Z,7.90
2022-10-22T04:50:30.860Z,7.28
2022-10-22T04:52:57.177Z,8.13
2022-10-22T04:55:23.575Z,7.57
2022-10-22T04:57:49.941Z,9.57
2022-10-22T05:00:17.826Z,5.53
2022-10-22T05:02:49.031Z,7.10
2022-10-22T05:05:15.437Z,9.00
2022-10-22T05:07:42.175Z,9.48
2022-10-22T05:10:09.262Z,4.80
2022-10-22T05:12:35.728Z,7.38
2022-10-22T05:15:02.115Z,10.75
2022-10-22T05:17:28.454Z,6.82
2022-10-22T05:19:57.174Z,11.13
2022-10-22T05:22:23.476Z,9.93
2022-10-22T05:24:49.789Z,8.50
2022-10-22T05:27:16.150Z,6.43
2022-10-22T05:29:42.540Z,7.50
2022-10-22T05:32:08.893Z,7.32
2022-10-22T05:34:36.123Z,10.20
2022-10-22T05:37:02.526Z,7.32
2022-10-22T05:39:29.003Z,10.55
2022-10-22T05:41:55.403Z,6.72
2022-10-22T05:44:21.741Z,8.15
2022-10-22T05:46:48.051Z,11.20
2022-10-22T05:49:15.478Z,8.52
2022-10-22T05:51:42.028Z,7.60
2022-10-22T05:54:11.211Z,10.27
2022-10-22T05:56:38.352Z,11.07
2022-10-22T05:59:04.927Z,9.13
2022-10-22T06:01:33.049Z,10.48
2022-10-22T06:04:01.659Z,13.18
2022-10-22T06:06:37.172Z,6.93
2022-10-22T06:09:18.320Z,9.70
2022-10-22T06:11:45.933Z,7.83
2022-10-22T06:14:12.683Z,5.93
2022-10-22T06:16:39.489Z,7.68
2022-10-22T06:19:06.225Z,7.53
2022-10-22T06:21:33.083Z,8.35
2022-10-22T06:24:00.779Z,6.80
2022-10-22T06:26:27.114Z,9.38
2022-10-22T06:28:55.673Z,10.80
2022-10-22T06:31:26.336Z,10.48
2022-10-22T06:33:52.756Z,8.40
2022-10-22T06:36:21.690Z,10.35
2022-10-22T06:38:52.181Z,8.23
2022-10-22T06:41:18.868Z,8.55
2022-10-22T06:43:48.728Z,20.05
2022-10-22T06:46:19.993Z,7.43
2022-10-22T06:49:00.244Z,8.23
2022-10-22T06:51:30.204Z,7.85
2022-10-22T06:53:58.454Z,8.10
2022-10-22T06:56:30.238Z,6.03
2022-10-22T06:58:57.974Z,7.43
2022-10-22T07:01:30.294Z,7.85
2022-10-22T07:03:56.798Z,10.13
2022-10-22T07:06:24.297Z,7.10
2022-10-22T07:08:51.285Z,10.60
2022-10-22T07:11:20.704Z,8.95
2022-10-22T07:13:47.752Z,7.65
2022-10-22T07:16:14.545Z,9.73
2022-10-22T07:18:41.908Z,11.43
2022-10-22T07:21:09.508Z,11.23
2022-10-22T07:23:36.155Z,12.15
2022-10-22T07:26:02.921Z,7.93
2022-10-22T07:28:30.527Z,6.45
2022-10-22T07:30:56.883Z,9.52
2022-10-22T07:33:23.194Z,8.73
2022-10-22T07:35:49.536Z,12.82
2022-10-22T07:38:15.851Z,12.80
2022-10-22T07:40:42.184Z,6.82
2022-10-22T07:43:08.547Z,8.15
2022-10-22T07:45:34.977Z,9.98
2022-10-22T07:48:02.202Z,12.60
2022-10-22T07:50:28.545Z,6.70
2022-10-22T07:52:57.435Z,8.27
2022-10-22T07:55:27.859Z,9.68
2022-10-22T07:57:54.308Z,5.60
2022-10-22T08:00:23.221Z,10.60
2022-10-22T08:02:52.048Z,6.50
2022-10-22T08:05:18.469Z,12.18
2022-10-22T08:07:44.962Z,6.85
2022-10-22T08:10:12.406Z,11.00
2022-10-22T08:12:39.677Z,9.63
2022-10-22T08:15:06.962Z,5.90
2022-10-22T08:17:33.334Z,9.38
2022-10-22T08:19:59.652Z,9.13
2022-10-22T08:22:25.974Z,7.05
2022-10-22T08:24:59.057Z,9.13
2022-10-22T08:27:25.422Z,8.35
2022-10-22T08:29:51.845Z,11.15
2022-10-22T08:32:22.074Z,8.63
2022-10-22T08:34:48.492Z,9.05
2022-10-22T08:37:16.968Z,11.98
2022-10-22T08:39:44.248Z,12.38
2022-10-22T08:42:32.100Z,11.85
2022-10-22T08:45:26.230Z,11.32
2022-10-22T08:48:01.466Z,6.72
2022-10-22T08:50:37.542Z,8.27
2022-10-22T08:53:11.631Z,12.80
2022-10-22T08:55:38.735Z,12.82
2022-10-22T08:58:29.680Z,8.90
2022-10-22T09:01:04.186Z,12.02
2022-10-22T09:03:45.774Z,9.52
2022-10-22T09:06:16.778Z,6.07
2022-10-22T09:08:45.858Z,7.45
2022-10-22T09:11:14.630Z,15.30
2022-10-22T09:13:43.553Z,11.95
2022-10-22T09:16:31.309Z,8.52
2022-10-22T09:19:08.358Z,12.02
2022-10-22T09:21:57.063Z,12.73
2022-10-22T09:24:45.485Z,9.00
2022-10-22T09:27:15.904Z,10.15
2022-10-22T09:29:45.667Z,6.57
2022-10-22T09:32:12.561Z,10.85
2022-10-22T09:34:39.140Z,9.77
2022-10-22T09:37:08.909Z,9.02
2022-10-22T09:39:39.501Z,15.82
2022-10-22T09:42:09.985Z,9.00
2022-10-22T09:44:37.669Z,6.60
2022-10-22T09:47:42.616Z,7.22
2022-10-22T09:50:31.038Z,8.73
2022-10-22T09:53:14.928Z,11.70
2022-10-22T09:55:42.307Z,6.25
2022-10-22T09:58:13.023Z,9.10
2022-10-22T10:00:41.755Z,6.78
2022-10-22T10:03:17.234Z,9.73
2022-10-22T10:05:48.228Z,6.50
2022-10-22T10:08:16.419Z,8.80
2022-10-22T10:10:51.624Z,7.97
2022-10-22T10:13:38.865Z,8.95
2022-10-22T10:16:31.798Z,8.63
2022-10-22T10:19:28.287Z,7.78
2022-10-22T10:22:05.293Z,9.23
2022-10-22T10:24:58.442Z,9.07
2022-10-22T10:27:42.713Z,8.90
2022-10-22T10:30:17.304Z,8.98
2022-10-22T10:32:55.962Z,7.97
2022-10-22T10:35:35.452Z,7.05
2022-10-22T10:38:29.576Z,9.95
2022-10-22T10:41:18.619Z,9.70
2022-10-22T10:44:13.327Z,6.45
2022-10-22T10:47:00.051Z,7.28
2022-10-22T10:49:30.111Z,7.43
2022-10-22T10:52:20.520Z,8.07
2022-10-22T10:55:02.671Z,7.50
2022-10-22T10:57:44.149Z,9.43
2022-10-22T11:00:20.508Z,7.63
2022-10-22T11:03:05.647Z,6.30
2022-10-22T11:05:48.723Z,8.93
2022-10-22T11:08:31.719Z,9.93
2022-10-22T11:11:04.159Z,9.57
2022-10-22T11:13:40.204Z,6.78
2022-10-22T11:16:16.730Z,7.07
2022-10-22T11:19:06.020Z,5.45
2022-10-22T11:21:50.231Z,5.45
2022-10-22T11:24:30.265Z,6.50
2022-10-22T11:27:20.089Z,8.15
2022-10-22T11:29:49.664Z,6.88
2022-10-22T11:32:19.897Z,7.72
2022-10-22T11:34:56.499Z,6.50
2022-10-22T11:37:26.360Z,9.07
2022-10-22T11:39:59.617Z,8.90
2022-10-22T11:42:35.998Z,9.23
2022-10-22T11:45:06.722Z,9.25
2022-10-22T11:47:35.909Z,6.57
2022-10-22T11:50:16.951Z,7.30
2022-10-22T11:52:54.527Z,9.23
2022-10-22T11:55:48.716Z,8.20
2022-10-22T11:58:33.236Z,10.52
2022-10-22T12:01:02.614Z,11.15
2022-10-22T12:03:31.918Z,12.07
2022-10-22T12:06:15.260Z,8.75
2022-10-22T12:08:43.627Z,8.45
2022-10-22T12:11:09.990Z,6.95
2022-10-22T12:14:01.004Z,10.48
2022-10-22T12:16:54.593Z,7.80
2022-10-22T12:19:22.420Z,9.82
2022-10-22T12:21:53.741Z,9.52
2022-10-22T12:24:22.671Z,7.53
2022-10-22T12:26:52.541Z,8.20
2022-10-22T12:29:26.448Z,9.15
2022-10-22T12:31:52.921Z,9.65
2022-10-22T12:34:23.610Z,7.55
2022-10-22T12:36:52.836Z,7.30
2022-10-22T12:39:26.393Z,9.32
2022-10-22T12:41:54.073Z,9.38
2022-10-22T12:44:20.513Z,13.02
2022-10-22T12:46:51.786Z,12.77
2022-10-22T12:49:25.647Z,10.25
2022-10-22T12:51:52.029Z,11.70
2022-10-22T12:54:28.806Z,15.57
2022-10-22T12:56:56.290Z,7.22
2022-10-22T12:59:26.890Z,6.00
2022-10-22T13:01:54.421Z,5.07
2022-10-22T13:04:27.032Z,8.30
2022-10-22T13:07:05.373Z,13.88
2022-10-22T13:09:41.790Z,7.82
2022-10-22T13:12:16.513Z,8.68
2022-10-22T13:14:45.421Z,11.77
2022-10-22T13:17:18.888Z,9.98
2022-10-22T13:19:54.487Z,13.35
2022-10-22T13:22:31.159Z,8.75
2022-10-22T13:25:22.251Z,5.90
2022-10-22T13:28:03.968Z,11.57
2022-10-22T13:30:33.498Z,9.55
2022-10-22T13:33:01.067Z,8.43
2022-10-22T13:35:32.420Z,8.98
2022-10-22T13:37:59.561Z,15.60
2022-10-22T13:40:26.523Z,14.23
2022-10-22T13:42:53.194Z,10.13
2022-10-22T13:45:19.862Z,6.32
2022-10-22T13:47:50.840Z,7.68
2022-10-22T13:50:19.479Z,9.88
2022-10-22T13:52:57.548Z,9.40
2022-10-22T13:55:30.557Z,9.18
2022-10-22T13:58:00.432Z,12.15
2022-10-22T14:00:26.891Z,8.35
2022-10-22T14:02:55.393Z,9.00
2022-10-22T14:05:21.728Z,6.80
2022-10-22T14:07:48.709Z,8.98
2022-10-22T14:10:22.529Z,11.68
2022-10-22T14:12:52.541Z,14.77
2022-10-22T14:15:25.453Z,12.13
2022-10-22T14:17:59.596Z,6.95
2022-10-22T14:20:30.088Z,14.07
2022-10-22T14:23:01.126Z,13.02
2022-10-22T14:25:27.855Z,14.98
2022-10-22T14:27:54.694Z,9.75
2022-10-22T14:30:26.062Z,7.53
2022-10-22T14:32:52.625Z,11.15
2022-10-22T14:35:21.742Z,7.03
2022-10-22T14:37:48.600Z,10.32
2022-10-22T14:40:18.447Z,11.60
2022-10-22T14:42:47.374Z,13.18
2022-10-22T14:45:20.874Z,9.13
2022-10-22T14:47:56.231Z,12.70
2022-10-22T14:50:24.359Z,7.68
2022-10-22T14:52:51.289Z,11.05
2022-10-22T14:55:19.790Z,6.68
2022-10-22T14:57:46.508Z,15.63
2022-10-22T15:00:16.016Z,8.75
2022-10-22T15:02:42.929Z,10.05
2022-10-22T15:05:10.412Z,6.65
2022-10-22T15:07:37.613Z,9.32
2022-10-22T15:10:05.537Z,12.25
2022-10-22T15:12:32.074Z,7.07
2022-10-22T15:14:58.425Z,8.73
2022-10-22T15:17:25.088Z,18.23
2022-10-22T15:19:53.004Z,7.22
2022-10-22T15:22:20.494Z,9.25
2022-10-22T15:24:48.420Z,11.68
2022-10-22T15:27:15.317Z,9.27
2022-10-22T15:29:42.668Z,13.85
2022-10-22T15:32:12.941Z,9.73
2022-10-22T15:34:40.473Z,9.93
2022-10-22T15:37:10.205Z,8.20
2022-10-22T15:39:39.676Z,8.50
2022-10-22T15:42:06.356Z,10.38
2022-10-22T15:44:33.088Z,8.90
2022-10-22T15:47:00.426Z,12.73
2022-10-22T15:49:28.183Z,7.32
2022-10-22T15:51:55.456Z,10.27
2022-10-22T15:54:26.273Z,7.60
2022-10-22T15:56:52.569Z,10.93
2022-10-22T15:59:19.016Z,12.18
2022-10-22T16:01:45.490Z,12.88
2022-10-22T16:04:11.948Z,9.98
2022-10-22T16:06:41.420Z,10.25
2022-10-22T16:09:15.573Z,13.57
2022-10-22T16:11:42.796Z,9.95
2022-10-22T16:14:12.077Z,12.23
2022-10-22T16:16:42.562Z,9.90
2022-10-22T16:19:11.164Z,12.77
2022-10-22T16:21:37.943Z,12.82
2022-10-22T16:24:06.336Z,11.52
2022-10-22T16:26:33.292Z,11.82
2022-10-22T16:28:59.834Z,11.60
2022-10-22T16:31:26.183Z,12.23
2022-10-22T16:33:52.604Z,14.13
2022-10-22T16:36:20.707Z,15.18
2022-10-22T16:38:55.928Z,18.42
2022-10-22T16:41:24.523Z,18.42
2022-10-22T16:43:54.888Z,14.35
2022-10-22T16:46:22.500Z,21.33
2022-10-22T16:48:51.373Z,27.90
2022-10-22T16:51:20.709Z,18.45
2022-10-22T16:53:47.465Z,16.63
2022-10-22T16:56:16.090Z,18.60
2022-10-22T16:58:48.064Z,11.15
2022-10-22T17:01:18.006Z,21.85
2022-10-22T17:03:44.823Z,14.48
2022-10-22T17:06:13.206Z,15.05
2022-10-22T17:08:40.814Z,18.05
2022-10-22T17:11:12.971Z,21.70
2022-10-22T17:13:42.149Z,30.13
2022-10-22T17:16:11.550Z,55.35
2022-10-22T17:18:40.100Z,45.55
2022-10-22T17:21:08.554Z,28.63
2022-10-22T17:23:37.293Z,26.77
2022-10-22T17:26:09.162Z,24.35
2022-10-22T17:31:14.973Z,33.92
2022-10-22T17:33:41.278Z,22.73
2022-10-22T17:36:12.906Z,20.58
2022-10-22T17:38:40.999Z,23.80
2022-10-22T17:41:11.340Z,22.77
2022-10-22T17:43:40.274Z,19.75
2022-10-22T17:46:08.917Z,13.35
2022-10-22T17:48:35.272Z,15.55
2022-10-22T17:51:06.157Z,12.05
2022-10-22T17:53:32.677Z,10.87
2022-10-22T17:56:01.069Z,12.38
2022-10-22T17:58:29.692Z,12.02
2022-10-22T18:00:56.626Z,12.05
2022-10-22T18:03:23.149Z,12.95
2022-10-22T18:05:49.449Z,9.18
2022-10-22T18:08:16.911Z,17.42
2022-10-22T18:10:43.304Z,13.27
2022-10-22T18:13:09.746Z,10.85
2022-10-22T18:15:36.431Z,11.52
2022-10-22T18:18:03.913Z,11.43
2022-10-22T18:20:30.643Z,16.48
2022-10-22T18:22:56.968Z,12.02
2022-10-22T18:25:23.329Z,11.40
2022-10-22T18:27:49.775Z,13.13
2022-10-22T18:30:16.307Z,7.68
2022-10-22T18:32:42.628Z,13.65
2022-10-22T18:35:09.116Z,10.55
2022-10-22T18:37:36.376Z,13.45
2022-10-22T18:40:03.438Z,14.60
2022-10-22T18:42:32.813Z,10.80
2022-10-22T18:45:00.905Z,11.02
2022-10-22T18:47:27.237Z,15.68
2022-10-22T18:49:53.578Z,14.02
2022-10-22T18:52:19.912Z,14.65
2022-10-22T18:54:46.312Z,19.52
2022-10-22T18:57:12.670Z,19.02
2022-10-22T18:59:38.999Z,18.02
2022-10-22T19:02:05.410Z,16.90
2022-10-22T19:04:36.639Z,21.95
2022-10-22T19:07:04.492Z,14.52
2022-10-22T19:09:34.002Z,17.02
2022-10-22T19:12:00.948Z,14.70
2022-10-22T19:14:27.567Z,10.77
2022-10-22T19:16:53.884Z,10.38
2022-10-22T19:19:21.462Z,14.82
2022-10-22T19:21:48.667Z,12.77
2022-10-22T19:24:16.861Z,8.88
2022-10-22T19:26:43.708Z,13.63
2022-10-22T19:29:10.940Z,13.18
2022-10-22T19:31:37.838Z,9.50
2022-10-22T19:34:04.636Z,11.50
2022-10-22T19:36:32.595Z,10.93
2022-10-22T19:39:00.045Z,10.18
2022-10-22T19:41:28.662Z,12.10
2022-10-22T19:43:56.342Z,7.30
2022-10-22T19:46:25.569Z,7.55
2022-10-22T19:48:52.710Z,6.45
2022-10-22T19:51:22.458Z,11.32
2022-10-22T19:53:49.770Z,11.27
2022-10-22T19:56:19.669Z,10.63
2022-10-22T19:58:46.346Z,17.83
2022-10-22T20:01:14.863Z,15.95
2022-10-22T20:03:41.578Z,15.88
2022-10-22T20:06:09.715Z,19.10
2022-10-22T20:08:37.875Z,21.02
2022-10-22T20:11:06.893Z,21.55
2022-10-22T20:16:05.068Z,16.75
2022-10-22T20:18:34.018Z,16.27
2022-10-22T20:21:08.520Z,16.67
2022-10-22T20:23:35.244Z,17.60
2022-10-22T20:26:01.706Z,13.25
2022-10-22T20:28:28.157Z,17.23
2022-10-22T20:30:54.498Z,15.93
2022-10-22T20:33:20.813Z,14.35
2022-10-22T20:35:57.966Z,21.38
2022-10-22T20:38:24.485Z,23.45
2022-10-22T20:41:05.752Z,22.20
2022-10-22T20:43:32.986Z,18.73
2022-10-22T20:45:59.592Z,33.08
2022-10-22T20:48:31.045Z,50.90
2022-10-22T20:51:01.567Z,46.65
2022-10-22T20:53:30.581Z,21.92
2022-10-22T20:55:58.867Z,17.30
2022-10-22T20:58:27.047Z,15.77
2022-10-22T21:00:55.030Z,19.98
2022-10-22T21:03:21.706Z,16.67
2022-10-22T21:05:48.187Z,12.15
2022-10-22T21:08:17.781Z,9.77
2022-10-22T21:10:49.092Z,38.20
2022-10-22T21:13:17.057Z,37.22
2022-10-22T21:15:43.415Z,31.42
2022-10-22T21:18:09.741Z,35.80
2022-10-22T21:20:36.617Z,24.60
2022-10-22T21:23:03.053Z,26.40
2022-10-22T21:25:29.377Z,18.17
2022-10-22T21:27:55.840Z,13.25
2022-10-22T21:30:22.209Z,11.55
2022-10-22T21:32:48.535Z,18.02
2022-10-22T21:35:15.004Z,17.67
2022-10-22T21:37:41.576Z,17.30
2022-10-22T21:40:09.019Z,17.13
2022-10-22T21:42:35.424Z,16.42
2022-10-22T21:45:01.845Z,23.73
2022-10-22T21:47:28.326Z,23.02
2022-10-22T21:49:54.769Z,27.85
2022-10-22T21:52:23.475Z,24.55
2022-10-22T21:54:49.812Z,16.15
2022-10-22T21:57:16.143Z,16.25
2022-10-22T21:59:42.587Z,18.50
2022-10-22T22:02:09.018Z,14.65
2022-10-22T22:04:35.402Z,13.63
2022-10-22T22:07:01.808Z,12.95
2022-10-22T22:09:28.452Z,14.85
2022-10-22T22:11:57.482Z,12.85
2022-10-22T22:14:23.794Z,9.68
2022-10-22T22:16:55.404Z,7.10
2022-10-22T22:19:21.769Z,10.23
2022-10-22T22:21:48.206Z,10.48
2022-10-22T22:24:14.541Z,10.07
2022-10-22T22:26:41.710Z,10.07
2022-10-22T22:29:08.074Z,15.73
2022-10-22T22:31:35.658Z,10.65
2022-10-22T22:34:04.666Z,11.85
2022-10-22T22:36:39.289Z,9.45
2022-10-22T22:39:07.565Z,10.82
2022-10-22T22:41:34.443Z,11.05
2022-10-22T22:44:00.796Z,12.50
2022-10-22T22:46:27.242Z,15.27
2022-10-22T22:48:53.789Z,9.93
2022-10-22T22:51:20.695Z,12.32
2022-10-22T22:53:47.248Z,15.63
2022-10-22T22:56:18.161Z,13.63
2022-10-22T22:58:44.697Z,12.68
2022-10-22T23:01:34.223Z,11.38
2022-10-22T23:04:06.741Z,15.65
2022-10-22T23:06:36.233Z,13.18
2022-10-22T23:09:06.442Z,15.02
2022-10-22T23:11:33.151Z,13.48
2022-10-22T23:14:02.357Z,15.30
2022-10-22T23:16:31.854Z,15.90
2022-10-22T23:18:58.997Z,14.48
2022-10-22T23:21:30.799Z,13.88
2022-10-22T23:24:03.417Z,14.52
2022-10-22T23:26:33.308Z,16.20
2022-10-22T23:29:05.013Z,15.27
2022-10-22T23:31:31.703Z,13.88
2022-10-22T23:33:58.569Z,24.52
2022-10-22T23:36:25.164Z,20.75
2022-10-22T23:38:51.509Z,94.40
2022-10-22T23:41:18.064Z,111.18
2022-10-22T23:43:44.564Z,65.18
2022-10-22T23:46:12.460Z,17.70
2022-10-22T23:48:39.644Z,11.45
2022-10-22T23:51:15.004Z,15.88
2022-10-22T23:53:42.400Z,14.27
2022-10-22T23:56:15.257Z,16.85
2022-10-22T23:58:42.299Z,15.07
